createdAt,value
2023-07-03T00:01:47.153Z,13.50
2023-07-03T00:05:49.001Z,12.50
2023-07-03T00:09:50.630Z,12.50
2023-07-03T00:13:51.952Z,15.00
2023-07-03T00:17:53.429Z,13.03
2023-07-03T00:21:54.744Z,12.90
2023-07-03T00:25:56.290Z,12.73
2023-07-03T00:29:57.612Z,13.63
2023-07-03T00:33:59.064Z,13.60
2023-07-03T00:38:00.380Z,13.30
2023-07-03T00:42:01.716Z,13.03
2023-07-03T00:46:03.731Z,12.83
2023-07-03T00:50:06.359Z,12.93
2023-07-03T00:54:07.861Z,12.70
2023-07-03T00:58:09.502Z,13.80
2023-07-03T01:02:26.011Z,13.60
2023-07-03T01:06:33.601Z,12.80
2023-07-03T01:10:35.169Z,12.17
2023-07-03T01:14:38.834Z,13.65
2023-07-03T01:18:41.700Z,13.93
2023-07-03T01:22:46.927Z,13.57
2023-07-03T01:26:49.408Z,13.88
2023-07-03T01:30:53.633Z,14.75
2023-07-03T01:34:56.625Z,15.03
2023-07-03T01:39:01.465Z,13.50
2023-07-03T01:43:03.203Z,14.33
2023-07-03T01:47:11.449Z,13.57
2023-07-03T01:51:16.624Z,14.37
2023-07-03T01:55:46.130Z,14.20
2023-07-03T01:59:51.035Z,13.53
2023-07-03T02:04:07.807Z,14.40
2023-07-03T02:08:10.427Z,13.13
2023-07-03T02:12:11.756Z,13.07
2023-07-03T02:16:15.829Z,13.53
2023-07-03T02:20:17.270Z,14.00
2023-07-03T02:24:18.713Z,14.10
2023-07-03T02:28:20.035Z,13.90
2023-07-03T02:32:21.380Z,13.20
2023-07-03T02:36:24.562Z,14.53
2023-07-03T02:40:25.922Z,14.40
2023-07-03T02:44:27.237Z,14.17
2023-07-03T02:48:28.570Z,12.67
2023-07-03T02:52:29.894Z,14.60
2023-07-03T02:56:31.244Z,14.30
2023-07-03T03:00:33.395Z,12.73
2023-07-03T03:04:34.741Z,13.10
2023-07-03T03:08:36.019Z,12.00
2023-07-03T03:12:37.308Z,12.67
2023-07-03T03:16:38.602Z,14.00
2023-07-03T03:20:40.423Z,13.23
2023-07-03T03:24:41.882Z,13.63
2023-07-03T03:28:43.237Z,13.53
2023-07-03T03:32:44.807Z,14.30
2023-07-03T03:36:46.215Z,14.47
2023-07-03T03:40:58.727Z,14.37
2023-07-03T03:45:00.018Z,13.03
2023-07-03T03:49:01.713Z,12.63
2023-07-03T03:53:02.980Z,13.20
2023-07-03T03:57:05.122Z,13.13
2023-07-03T04:01:06.359Z,13.70
2023-07-03T04:05:07.970Z,12.93
2023-07-03T04:09:10.192Z,12.73
2023-07-03T04:13:12.340Z,13.77
2023-07-03T04:17:13.728Z,13.53
2023-07-03T04:21:16.573Z,12.90
2023-07-03T04:25:18.357Z,12.10
2023-07-03T04:29:19.690Z,14.03
2023-07-03T04:33:23.661Z,13.30
2023-07-03T04:37:26.815Z,12.47
2023-07-03T04:41:28.439Z,12.97
2023-07-03T04:45:32.351Z,12.33
2023-07-03T04:49:33.906Z,12.57
2023-07-03T04:53:41.366Z,10.47
2023-07-03T04:57:43.020Z,12.67
2023-07-03T05:01:44.470Z,11.93
2023-07-03T05:05:45.762Z,11.50
2023-07-03T05:09:47.094Z,12.30
2023-07-03T05:13:48.444Z,12.68
2023-07-03T05:17:51.502Z,11.53
2023-07-03T05:21:52.847Z,10.33
2023-07-03T05:25:54.459Z,11.00
2023-07-03T05:29:57.945Z,10.93
2023-07-03T05:33:59.539Z,9.60
2023-07-03T05:38:01.009Z,9.53
2023-07-03T05:42:02.334Z,9.40
2023-07-03T05:46:03.675Z,7.90
2023-07-03T05:50:07.523Z,7.97
2023-07-03T05:54:10.004Z,8.90
2023-07-03T05:58:12.184Z,6.70
2023-07-03T06:02:16.173Z,7.47
2023-07-03T06:06:18.045Z,7.77
2023-07-03T06:10:19.467Z,8.57
2023-07-03T06:14:20.878Z,7.90
2023-07-03T06:18:22.108Z,7.30
2023-07-03T06:22:23.746Z,7.23
2023-07-03T06:26:25.064Z,7.87
2023-07-03T06:30:26.387Z,8.13
2023-07-03T06:34:28.161Z,7.43
2023-07-03T06:38:29.537Z,7.93
2023-07-03T06:42:30.883Z,7.40
2023-07-03T06:46:33.743Z,8.10
2023-07-03T06:50:35.144Z,7.00
2023-07-03T06:54:36.488Z,5.97
2023-07-03T06:58:37.805Z,7.72
2023-07-03T07:02:39.389Z,7.37
2023-07-03T07:06:40.867Z,7.33
2023-07-03T07:10:42.634Z,7.17
2023-07-03T07:14:43.958Z,7.50
2023-07-03T07:18:51.881Z,6.47
2023-07-03T07:22:53.179Z,6.90
2023-07-03T07:26:59.138Z,6.70
2023-07-03T07:31:00.525Z,6.83
2023-07-03T07:35:07.354Z,5.85
2023-07-03T07:39:09.193Z,5.33
2023-07-03T07:43:10.504Z,6.17
2023-07-03T07:47:11.972Z,5.17
2023-07-03T07:51:13.796Z,5.50
2023-07-03T07:55:15.226Z,5.85
2023-07-03T07:59:17.195Z,5.13
2023-07-03T08:03:18.499Z,5.67
2023-07-03T08:07:19.853Z,5.50
2023-07-03T08:11:21.256Z,5.67
2023-07-03T08:15:22.551Z,5.33
2023-07-03T08:19:24.116Z,4.43
2023-07-03T08:23:25.880Z,4.90
2023-07-03T08:27:27.195Z,4.50
2023-07-03T08:31:28.691Z,3.93
2023-07-03T08:39:33.312Z,4.27
2023-07-03T08:43:38.415Z,3.77
2023-07-03T08:47:41.167Z,3.60
2023-07-03T08:51:43.259Z,4.10
2023-07-03T08:55:49.183Z,4.23
2023-07-03T08:59:53.169Z,4.20
2023-07-03T09:04:28.801Z,3.77
2023-07-03T09:08:50.498Z,4.73
2023-07-03T09:13:01.512Z,3.97
2023-07-03T09:17:06.763Z,3.73
2023-07-03T09:21:08.934Z,4.00
2023-07-03T09:25:14.235Z,4.70
2023-07-03T09:29:16.174Z,4.23
2023-07-03T09:33:19.166Z,4.23
2023-07-03T09:37:20.543Z,3.33
2023-07-03T09:41:30.921Z,3.83
2023-07-03T09:45:34.914Z,3.87
2023-07-03T09:49:36.620Z,3.90
2023-07-03T09:53:40.267Z,3.47
2023-07-03T09:57:41.580Z,4.47
2023-07-03T10:13:55.988Z,3.30
2023-07-03T10:18:07.139Z,3.77
2023-07-03T10:22:09.894Z,9.73
2023-07-03T10:26:15.466Z,4.37
2023-07-03T10:30:18.913Z,3.77
2023-07-03T10:34:29.727Z,4.30
2023-07-03T10:38:40.530Z,5.00
2023-07-03T10:42:48.179Z,4.87
2023-07-03T10:47:05.311Z,4.27
2023-07-03T10:51:20.423Z,4.30
2023-07-03T10:55:34.230Z,4.60
2023-07-03T10:59:39.379Z,4.20
2023-07-03T11:04:00.705Z,4.33
2023-07-03T11:07:59.791Z,5.93
2023-07-03T11:12:14.197Z,4.07
2023-07-03T11:16:17.673Z,4.12
2023-07-03T11:24:54.027Z,3.70
2023-07-03T11:28:56.479Z,3.73
2023-07-03T11:33:00.299Z,3.77
2023-07-03T11:37:04.737Z,4.27
2023-07-03T11:45:27.095Z,4.53
2023-07-03T11:49:33.538Z,3.77
2023-07-03T11:53:38.200Z,5.33
2023-07-03T11:57:42.849Z,4.33
2023-07-03T12:01:44.264Z,3.58
2023-07-03T12:05:53.183Z,3.90
2023-07-03T12:10:15.405Z,3.77
2023-07-03T12:14:20.517Z,4.07
2023-07-03T12:18:21.943Z,3.90
2023-07-03T12:22:27.098Z,4.37
2023-07-03T12:26:30.430Z,3.13
2023-07-03T12:30:31.781Z,4.50
2023-07-03T12:34:35.872Z,4.03
2023-07-03T12:38:37.177Z,4.60
2023-07-03T12:42:38.506Z,4.20
2023-07-03T12:46:41.514Z,3.70
2023-07-03T12:50:53.194Z,3.97
2023-07-03T12:55:09.389Z,4.00
2023-07-03T12:59:00.336Z,4.30
2023-07-03T13:03:04.862Z,4.47
2023-07-03T13:07:06.375Z,3.93
2023-07-03T13:11:07.921Z,3.87
2023-07-03T13:15:13.108Z,4.47
2023-07-03T13:19:25.883Z,4.00
2023-07-03T13:23:37.033Z,4.47
2023-07-03T13:27:38.592Z,3.40
2023-07-03T13:31:51.295Z,3.92
2023-07-03T13:35:51.076Z,3.90
2023-07-03T13:40:01.070Z,3.23
2023-07-03T13:43:57.000Z,4.13
2023-07-03T13:47:58.363Z,3.80
2023-07-03T13:51:59.637Z,3.93
2023-07-03T13:56:01.078Z,4.47
2023-07-03T14:00:03.106Z,3.43
2023-07-03T14:04:06.036Z,3.50
2023-07-03T14:08:07.953Z,4.10
2023-07-03T14:12:09.309Z,3.77
2023-07-03T14:16:12.632Z,3.80
2023-07-03T14:20:14.309Z,3.57
2023-07-03T14:24:15.599Z,4.13
2023-07-03T14:28:16.979Z,4.17
2023-07-03T14:32:18.271Z,5.28
2023-07-03T14:36:19.686Z,3.60
2023-07-03T14:40:21.132Z,4.53
2023-07-03T14:44:22.499Z,3.90
2023-07-03T14:48:23.812Z,3.97
2023-07-03T14:52:27.164Z,3.93
2023-07-03T14:56:28.474Z,3.65
2023-07-03T15:00:31.961Z,4.33
2023-07-03T15:04:33.415Z,4.43
2023-07-03T15:08:35.048Z,4.63
2023-07-03T15:12:37.457Z,3.77
2023-07-03T15:16:38.775Z,4.50
2023-07-03T15:20:42.225Z,4.27
2023-07-03T15:24:43.645Z,4.07
2023-07-03T15:28:44.968Z,4.50
2023-07-03T15:32:51.814Z,4.50
2023-07-03T15:36:54.600Z,3.90
2023-07-03T15:40:58.020Z,3.73
2023-07-03T15:44:59.425Z,4.03
2023-07-03T15:49:00.935Z,3.90
2023-07-03T15:53:02.247Z,4.47
2023-07-03T15:57:04.312Z,4.20
2023-07-03T16:01:09.295Z,4.33
2023-07-03T16:05:11.511Z,3.97
2023-07-03T16:09:13.989Z,4.10
2023-07-03T16:13:15.399Z,3.40
2023-07-03T16:17:16.826Z,3.93
2023-07-03T16:21:21.908Z,4.50
2023-07-03T16:25:23.633Z,3.93
2023-07-03T16:29:24.940Z,3.47
2023-07-03T16:33:26.388Z,3.83
2023-07-03T16:37:27.697Z,3.60
2023-07-03T16:41:31.852Z,3.80
2023-07-03T16:45:33.130Z,3.60
2023-07-03T16:49:34.535Z,4.27
2023-07-03T16:53:41.942Z,4.00
2023-07-03T16:57:43.628Z,3.57
2023-07-03T17:01:45.043Z,3.60
2023-07-03T17:05:46.651Z,3.52
2023-07-03T17:09:47.987Z,3.93
2023-07-03T17:13:49.900Z,3.17
2023-07-03T17:17:51.412Z,3.40
2023-07-03T17:21:52.815Z,3.20
2023-07-03T17:25:54.722Z,2.80
2023-07-03T17:29:56.146Z,2.87
2023-07-03T17:33:57.503Z,2.50
2023-07-03T17:37:59.443Z,2.80
2023-07-03T17:42:00.809Z,3.00
2023-07-03T17:46:02.112Z,2.47
2023-07-03T17:50:04.361Z,2.35
2023-07-03T17:54:05.747Z,1.90
2023-07-03T17:58:07.671Z,2.00
2023-07-03T18:02:12.127Z,2.23
2023-07-03T18:06:13.597Z,2.20
2023-07-03T18:10:15.042Z,2.33
2023-07-03T18:14:16.496Z,2.87
2023-07-03T18:18:19.774Z,2.97
2023-07-03T18:22:21.160Z,2.20
2023-07-03T18:26:22.763Z,2.10
2023-07-03T18:30:24.148Z,2.10
2023-07-03T18:34:25.577Z,2.70
2023-07-03T18:38:26.970Z,2.40
2023-07-03T18:42:28.335Z,2.70
2023-07-03T18:46:29.851Z,2.00
2023-07-03T18:50:31.344Z,2.23
2023-07-03T18:54:33.421Z,2.10
2023-07-03T18:58:34.831Z,2.17
2023-07-03T19:02:36.194Z,2.60
2023-07-03T19:06:39.725Z,2.10
2023-07-03T19:10:41.736Z,2.77
2023-07-03T19:14:43.736Z,2.60
2023-07-03T19:18:45.457Z,2.40
2023-07-03T19:22:46.908Z,2.42
2023-07-03T19:26:49.830Z,2.97
2023-07-03T19:30:56.532Z,2.80
2023-07-03T19:34:57.999Z,2.60
2023-07-03T19:38:59.624Z,2.60
2023-07-03T19:43:01.087Z,2.80
2023-07-03T19:47:02.807Z,2.63
2023-07-03T19:51:04.281Z,2.80
2023-07-03T19:55:07.015Z,2.30
2023-07-03T19:59:10.307Z,2.67
2023-07-03T20:03:13.038Z,2.23
2023-07-03T20:07:14.525Z,2.40
2023-07-03T20:11:16.868Z,2.83
2023-07-03T20:15:21.935Z,2.83
2023-07-03T20:19:23.454Z,3.20
2023-07-03T20:23:24.955Z,2.45
2023-07-03T20:27:29.083Z,2.63
2023-07-03T20:31:30.416Z,3.00
2023-07-03T20:35:31.721Z,2.47
2023-07-03T20:39:33.064Z,2.60
2023-07-03T20:43:35.581Z,2.90
2023-07-03T20:47:36.927Z,2.53
2023-07-03T20:51:39.668Z,2.77
2023-07-03T20:55:45.621Z,2.30
2023-07-03T20:59:52.612Z,2.90
2023-07-03T21:03:55.480Z,3.10
2023-07-03T21:07:56.853Z,2.63
2023-07-03T21:11:58.345Z,2.53
2023-07-03T21:16:02.638Z,2.37
2023-07-03T21:20:06.575Z,2.47
2023-07-03T21:24:10.447Z,2.93
2023-07-03T21:28:11.827Z,3.00
2023-07-03T21:32:13.176Z,3.00
2023-07-03T21:36:19.139Z,3.30
2023-07-03T21:40:20.589Z,3.57
2023-07-03T21:44:22.156Z,3.80
2023-07-03T21:48:25.552Z,3.03
2023-07-03T21:52:26.883Z,3.67
2023-07-03T21:56:31.804Z,2.97
2023-07-03T22:00:33.393Z,3.53
2023-07-03T22:04:34.770Z,3.20
2023-07-03T22:08:36.079Z,3.57
2023-07-03T22:12:37.383Z,3.23
2023-07-03T22:16:38.886Z,3.40
2023-07-03T22:20:40.398Z,3.62
2023-07-03T22:24:42.898Z,3.57
2023-07-03T22:28:45.356Z,4.10
2023-07-03T22:32:47.173Z,3.23
2023-07-03T22:36:48.440Z,3.83
2023-07-03T22:40:50.767Z,4.30
2023-07-03T22:44:52.134Z,3.67
2023-07-03T22:48:53.442Z,3.80
2023-07-03T22:52:54.754Z,4.10
2023-07-03T22:56:56.851Z,3.73
2023-07-03T23:01:00.220Z,4.30
2023-07-03T23:05:01.704Z,4.17
2023-07-03T23:09:04.480Z,4.50
2023-07-03T23:13:05.790Z,3.93
2023-07-03T23:17:08.033Z,3.57
2023-07-03T23:21:13.444Z,3.57
2023-07-03T23:25:14.668Z,3.47
2023-07-03T23:29:15.955Z,3.60
2023-07-03T23:33:17.571Z,3.67
2023-07-03T23:37:20.789Z,4.43
2023-07-03T23:41:22.110Z,3.97
2023-07-03T23:45:23.811Z,3.60
2023-07-03T23:49:25.627Z,3.60
2023-07-03T23:53:28.427Z,3.50
2023-07-03T23:57:29.729Z,3.40
